sensor_id;sensor_type;location;lat;lon;timestamp;pressure;altitude;pressure_sealevel;temperature;humidity
18436;BME280;9346;52.006;4.720;2022-09-17T00:01:43;101285.31;;;12.97;100.00
18436;BME280;9346;52.006;4.720;2022-09-17T00:04:10;101292.53;;;12.93;100.00
18436;BME280;9346;52.006;4.720;2022-09-17T00:06:39;101307.19;;;12.93;100.00
18436;BME280;9346;52.006;4.720;2022-09-17T00:09:06;101328.19;;;12.94;100.00
18436;BME280;9346;52.006;4.720;2022-09-17T00:11:36;101327.34;;;12.94;100.00
18436;BME280;9346;52.006;4.720;2022-09-17T00:14:07;101299.44;;;12.90;100.00
18436;BME280;9346;52.006;4.720;2022-09-17T00:16:37;101316.88;;;12.86;100.00
18436;BME280;9346;52.006;4.720;2022-09-17T00:19:06;101311.91;;;12.83;100.00
18436;BME280;9346;52.006;4.720;2022-09-17T00:21:34;101317.44;;;12.83;100.00
18436;BME280;9346;52.006;4.720;2022-09-17T00:24:04;101323.78;;;12.83;100.00
18436;BME280;9346;52.006;4.720;2022-09-17T00:26:33;101319.63;;;12.86;100.00
18436;BME280;9346;52.006;4.720;2022-09-17T00:29:02;101321.28;;;12.87;100.00
18436;BME280;9346;52.006;4.720;2022-09-17T00:31:32;101322.97;;;12.88;100.00
18436;BME280;9346;52.006;4.720;2022-09-17T00:34:00;101321.56;;;12.90;100.00
18436;BME280;9346;52.006;4.720;2022-09-17T00:36:27;101327.09;;;12.90;100.00
18436;BME280;9346;52.006;4.720;2022-09-17T00:38:56;101333.44;;;12.91;100.00
18436;BME280;9346;52.006;4.720;2022-09-17T00:41:25;101323.78;;;12.88;100.00
18436;BME280;9346;52.006;4.720;2022-09-17T00:43:54;101327.38;;;12.84;100.00
18436;BME280;9346;52.006;4.720;2022-09-17T00:46:26;101323.78;;;12.78;100.00
18436;BME280;9346;52.006;4.720;2022-09-17T00:48:58;101323.78;;;12.78;100.00
18436;BME280;9346;52.006;4.720;2022-09-17T00:51:29;101334.84;;;12.78;100.00
18436;BME280;9346;52.006;4.720;2022-09-17T00:54:00;101327.66;;;12.77;100.00
18436;BME280;9346;52.006;4.720;2022-09-17T00:56:31;101333.19;;;12.77;100.00
18436;BME280;9346;52.006;4.720;2022-09-17T00:59:00;101334.59;;;12.75;100.00
18436;BME280;9346;52.006;4.720;2022-09-17T01:01:27;101330.97;;;12.64;100.00
18436;BME280;9346;52.006;4.720;2022-09-17T01:03:56;101316.63;;;12.57;100.00
18436;BME280;9346;52.006;4.720;2022-09-17T01:06:30;101301.69;;;12.48;100.00
18436;BME280;9346;52.006;4.720;2022-09-17T01:09:12;101305.00;;;12.45;100.00
18436;BME280;9346;52.006;4.720;2022-09-17T01:12:02;101304.16;;;12.45;100.00
18436;BME280;9346;52.006;4.720;2022-09-17T01:14:44;101303.88;;;12.46;100.00
18436;BME280;9346;52.006;4.720;2022-09-17T01:17:19;101303.88;;;12.46;100.00
18436;BME280;9346;52.006;4.720;2022-09-17T01:22:50;101301.38;;;12.55;100.00
18436;BME280;9346;52.006;4.720;2022-09-17T01:25:21;101308.31;;;12.57;100.00
18436;BME280;9346;52.006;4.720;2022-09-17T01:28:16;101313.00;;;12.62;100.00
18436;BME280;9346;52.006;4.720;2022-09-17T01:31:00;101310.22;;;12.62;100.00
18436;BME280;9346;52.006;4.720;2022-09-17T01:33:34;101315.47;;;12.63;100.00
18436;BME280;9346;52.006;4.720;2022-09-17T01:36:16;101320.19;;;12.68;100.00
18436;BME280;9346;52.006;4.720;2022-09-17T01:38:52;101319.91;;;12.69;100.00
18436;BME280;9346;52.006;4.720;2022-09-17T01:41:28;101325.72;;;12.73;100.00
18436;BME280;9346;52.006;4.720;2022-09-17T01:44:01;101327.66;;;12.77;100.00
18436;BME280;9346;52.006;4.720;2022-09-17T01:46:36;101323.22;;;12.81;100.00
18436;BME280;9346;52.006;4.720;2022-09-17T01:49:05;101326.84;;;12.82;100.00
18436;BME280;9346;52.006;4.720;2022-09-17T01:51:36;101332.09;;;12.83;100.00
18436;BME280;9346;52.006;4.720;2022-09-17T01:54:08;101328.22;;;12.84;100.00
18436;BME280;9346;52.006;4.720;2022-09-17T01:56:39;101335.38;;;12.85;100.00
18436;BME280;9346;52.006;4.720;2022-09-17T01:59:11;101341.75;;;12.86;100.00
18436;BME280;9346;52.006;4.720;2022-09-17T02:01:45;101356.41;;;12.86;100.00
18436;BME280;9346;52.006;4.720;2022-09-17T02:04:16;101356.97;;;12.83;100.00
18436;BME280;9346;52.006;4.720;2022-09-17T02:06:50;101363.31;;;12.84;100.00
18436;BME280;9346;52.006;4.720;2022-09-17T02:09:21;101357.50;;;12.85;100.00
18436;BME280;9346;52.006;4.720;2022-09-17T02:11:52;101361.38;;;12.84;100.00
18436;BME280;9346;52.006;4.720;2022-09-17T02:14:26;101362.50;;;12.83;100.00
18436;BME280;9346;52.006;4.720;2022-09-17T02:17:02;101369.38;;;12.81;100.00
18436;BME280;9346;52.006;4.720;2022-09-17T02:19:36;101361.91;;;12.76;100.00
18436;BME280;9346;52.006;4.720;2022-09-17T02:22:13;101360.00;;;12.77;100.00
18436;BME280;9346;52.006;4.720;2022-09-17T02:24:46;101346.44;;;12.75;100.00
18436;BME280;9346;52.006;4.720;2022-09-17T02:27:19;101347.28;;;12.76;100.00
18436;BME280;9346;52.006;4.720;2022-09-17T02:29:49;101343.69;;;12.75;100.00
18436;BME280;9346;52.006;4.720;2022-09-17T02:32:18;101350.31;;;12.74;100.00
18436;BME280;9346;52.006;4.720;2022-09-17T02:34:45;101344.22;;;12.72;100.00
18436;BME280;9346;52.006;4.720;2022-09-17T02:37:12;101345.34;;;12.71;100.00
18436;BME280;9346;52.006;4.720;2022-09-17T02:39:40;101340.66;;;12.67;100.00
18436;BME280;9346;52.006;4.720;2022-09-17T02:42:14;101350.31;;;12.64;100.00
18436;BME280;9346;52.006;4.720;2022-09-17T02:44:53;101352.53;;;12.62;100.00
18436;BME280;9346;52.006;4.720;2022-09-17T02:50:55;101359.44;;;12.50;100.00
18436;BME280;9346;52.006;4.720;2022-09-17T02:53:34;101335.09;;;12.42;100.00
18436;BME280;9346;52.006;4.720;2022-09-17T02:56:10;101346.41;;;12.40;100.00
18436;BME280;9346;52.006;4.720;2022-09-17T02:58:44;101338.13;;;12.35;100.00
18436;BME280;9346;52.006;4.720;2022-09-17T03:01:21;101337.88;;;12.37;100.00
18436;BME280;9346;52.006;4.720;2022-09-17T03:03:53;101338.66;;;12.37;100.00
18436;BME280;9346;52.006;4.720;2022-09-17T03:06:24;101342.81;;;12.35;100.00
18436;BME280;9346;52.006;4.720;2022-09-17T03:08:51;101346.16;;;12.37;100.00
18436;BME280;9346;52.006;4.720;2022-09-17T03:11:18;101343.66;;;12.40;100.00
18436;BME280;9346;52.006;4.720;2022-09-17T03:13:46;101332.34;;;12.37;100.00
18436;BME280;9346;52.006;4.720;2022-09-17T03:16:13;101321.84;;;12.34;100.00
18436;BME280;9346;52.006;4.720;2022-09-17T03:18:40;101309.94;;;12.33;100.00
18436;BME280;9346;52.006;4.720;2022-09-17T03:21:07;101321.28;;;12.37;100.00
18436;BME280;9346;52.006;4.720;2022-09-17T03:23:36;101324.59;;;12.39;100.00
18436;BME280;9346;52.006;4.720;2022-09-17T03:26:04;101325.97;;;12.46;100.00
18436;BME280;9346;52.006;4.720;2022-09-17T03:28:31;101336.50;;;12.49;100.00
18436;BME280;9346;52.006;4.720;2022-09-17T03:30:59;101322.97;;;12.53;100.00
18436;BME280;9346;52.006;4.720;2022-09-17T03:33:27;101306.09;;;12.54;100.00
18436;BME280;9346;52.006;4.720;2022-09-17T03:35:54;101314.69;;;12.53;100.00
18436;BME280;9346;52.006;4.720;2022-09-17T03:38:22;101312.19;;;12.51;100.00
18436;BME280;9346;52.006;4.720;2022-09-17T03:41:03;101315.47;;;12.53;100.00
18436;BME280;9346;52.006;4.720;2022-09-17T03:43:31;101314.94;;;12.56;100.00
18436;BME280;9346;52.006;4.720;2022-09-17T03:45:59;101324.91;;;12.57;100.00
18436;BME280;9346;52.006;4.720;2022-09-17T03:48:26;101332.34;;;12.57;100.00
18436;BME280;9346;52.006;4.720;2022-09-17T03:50:53;101328.19;;;12.59;100.00
18436;BME280;9346;52.006;4.720;2022-09-17T03:53:21;101318.81;;;12.60;100.00
18436;BME280;9346;52.006;4.720;2022-09-17T03:55:48;101321.28;;;12.62;100.00
18436;BME280;9346;52.006;4.720;2022-09-17T03:58:17;101326.53;;;12.63;100.00
18436;BME280;9346;52.006;4.720;2022-09-17T04:00:46;101330.13;;;12.64;100.00
18436;BME280;9346;52.006;4.720;2022-09-17T04:03:18;101336.50;;;12.64;100.00
18436;BME280;9346;52.006;4.720;2022-09-17T04:05:46;101342.03;;;12.64;100.00
18436;BME280;9346;52.006;4.720;2022-09-17T04:08:13;101341.75;;;12.66;100.00
18436;BME280;9346;52.006;4.720;2022-09-17T04:10:42;101357.50;;;12.65;100.00
18436;BME280;9346;52.006;4.720;2022-09-17T04:13:12;101351.97;;;12.65;100.00
18436;BME280;9346;52.006;4.720;2022-09-17T04:15:43;101352.53;;;12.67;100.00
18436;BME280;9346;52.006;4.720;2022-09-17T04:18:11;101351.97;;;12.65;100.00
18436;BME280;9346;52.006;4.720;2022-09-17T04:20:40;101349.75;;;12.62;100.00
18436;BME280;9346;52.006;4.720;2022-09-17T04:23:09;101353.38;;;12.63;100.00
18436;BME280;9346;52.006;4.720;2022-09-17T04:25:37;101357.78;;;12.64;100.00
18436;BME280;9346;52.006;4.720;2022-09-17T04:28:05;101350.31;;;12.64;100.00
18436;BME280;9346;52.006;4.720;2022-09-17T04:30:33;101352.53;;;12.67;100.00
18436;BME280;9346;52.006;4.720;2022-09-17T04:33:03;101350.31;;;12.69;100.00
18436;BME280;9346;52.006;4.720;2022-09-17T04:35:32;101353.06;;;12.69;100.00
18436;BME280;9346;52.006;4.720;2022-09-17T04:37:59;101351.44;;;12.68;100.00
18436;BME280;9346;52.006;4.720;2022-09-17T04:40:27;101357.22;;;12.67;100.00
18436;BME280;9346;52.006;4.720;2022-09-17T04:42:55;101357.50;;;12.65;100.00
18436;BME280;9346;52.006;4.720;2022-09-17T04:45:24;101356.38;;;12.66;100.00
18436;BME280;9346;52.006;4.720;2022-09-17T04:47:52;101377.94;;;12.69;100.00
18436;BME280;9346;52.006;4.720;2022-09-17T04:50:21;101392.59;;;12.70;100.00
18436;BME280;9346;52.006;4.720;2022-09-17T04:52:49;101397.56;;;12.68;100.00
18436;BME280;9346;52.006;4.720;2022-09-17T04:55:16;101395.09;;;12.66;100.00
18436;BME280;9346;52.006;4.720;2022-09-17T04:57:45;101385.97;;;12.56;100.00
18436;BME280;9346;52.006;4.720;2022-09-17T05:00:13;101386.22;;;12.44;100.00
18436;BME280;9346;52.006;4.720;2022-09-17T05:02:43;101391.16;;;12.32;100.00
18436;BME280;9346;52.006;4.720;2022-09-17T05:05:12;101386.16;;;12.24;100.00
18436;BME280;9346;52.006;4.720;2022-09-17T05:07:41;101393.88;;;12.17;100.00
18436;BME280;9346;52.006;4.720;2022-09-17T05:10:10;101381.19;;;12.16;100.00
18436;BME280;9346;52.006;4.720;2022-09-17T05:12:38;101389.72;;;12.15;100.00
18436;BME280;9346;52.006;4.720;2022-09-17T05:15:08;101386.66;;;12.11;100.00
18436;BME280;9346;52.006;4.720;2022-09-17T05:17:35;101380.88;;;12.13;100.00
18436;BME280;9346;52.006;4.720;2022-09-17T05:20:03;101373.69;;;12.12;100.00
18436;BME280;9346;52.006;4.720;2022-09-17T05:22:30;101375.91;;;12.10;100.00
18436;BME280;9346;52.006;4.720;2022-09-17T05:24:59;101375.63;;;12.11;100.00
18436;BME280;9346;52.006;4.720;2022-09-17T05:27:26;101382.81;;;12.12;100.00
18436;BME280;9346;52.006;4.720;2022-09-17T05:29:52;101387.81;;;12.15;100.00
18436;BME280;9346;52.006;4.720;2022-09-17T05:32:19;101393.59;;;12.19;100.00
18436;BME280;9346;52.006;4.720;2022-09-17T05:34:46;101396.38;;;12.19;100.00
18436;BME280;9346;52.006;4.720;2022-09-17T05:37:14;101404.38;;;12.20;100.00
18436;BME280;9346;52.006;4.720;2022-09-17T05:39:41;101398.84;;;12.20;100.00
18436;BME280;9346;52.006;4.720;2022-09-17T05:42:10;101402.16;;;12.17;100.00
18436;BME280;9346;52.006;4.720;2022-09-17T05:44:37;101396.38;;;12.19;100.00
18436;BME280;9346;52.006;4.720;2022-09-17T05:47:04;101393.06;;;12.22;100.00
18436;BME280;9346;52.006;4.720;2022-09-17T05:49:31;101395.00;;;12.26;100.00
18436;BME280;9346;52.006;4.720;2022-09-17T05:51:58;101396.38;;;12.29;100.00
18436;BME280;9346;52.006;4.720;2022-09-17T05:54:25;101392.81;;;12.28;100.00
18436;BME280;9346;52.006;4.720;2022-09-17T05:56:52;101386.19;;;12.29;100.00
18436;BME280;9346;52.006;4.720;2022-09-17T05:59:20;101381.22;;;12.31;100.00
18436;BME280;9346;52.006;4.720;2022-09-17T06:01:47;101385.06;;;12.30;100.00
18436;BME280;9346;52.006;4.720;2022-09-17T06:04:15;101384.00;;;12.31;100.00
18436;BME280;9346;52.006;4.720;2022-09-17T06:06:44;101393.38;;;12.35;100.00
18436;BME280;9346;52.006;4.720;2022-09-17T06:09:11;101395.34;;;12.40;100.00
18436;BME280;9346;52.006;4.720;2022-09-17T06:11:38;101419.66;;;12.43;100.00
18436;BME280;9346;52.006;4.720;2022-09-17T06:14:05;101442.59;;;12.48;100.00
18436;BME280;9346;52.006;4.720;2022-09-17T06:16:33;101432.63;;;12.47;100.00
18436;BME280;9346;52.006;4.720;2022-09-17T06:19:00;101432.34;;;12.39;100.00
18436;BME280;9346;52.006;4.720;2022-09-17T06:21:28;101413.53;;;12.31;100.00
18436;BME280;9346;52.006;4.720;2022-09-17T06:23:55;101411.84;;;12.25;100.00
18436;BME280;9346;52.006;4.720;2022-09-17T06:26:22;101407.72;;;12.22;100.00
18436;BME280;9346;52.006;4.720;2022-09-17T06:28:49;101411.81;;;12.20;100.00
18436;BME280;9346;52.006;4.720;2022-09-17T06:31:16;101407.41;;;12.19;100.00
18436;BME280;9346;52.006;4.720;2022-09-17T06:33:46;101422.06;;;12.19;100.00
18436;BME280;9346;52.006;4.720;2022-09-17T06:36:15;101426.47;;;12.20;100.00
18436;BME280;9346;52.006;4.720;2022-09-17T06:38:42;101420.69;;;12.22;100.00
18436;BME280;9346;52.006;4.720;2022-09-17T06:41:09;101430.63;;;12.23;100.00
18436;BME280;9346;52.006;4.720;2022-09-17T06:43:38;101429.28;;;12.25;100.00
18436;BME280;9346;52.006;4.720;2022-09-17T06:46:05;101433.69;;;12.26;100.00
18436;BME280;9346;52.006;4.720;2022-09-17T06:48:34;101426.50;;;12.30;100.00
18436;BME280;9346;52.006;4.720;2022-09-17T06:51:05;101422.63;;;12.26;100.00
18436;BME280;9346;52.006;4.720;2022-09-17T06:53:32;101425.66;;;12.25;100.00
18436;BME280;9346;52.006;4.720;2022-09-17T06:56:02;101419.88;;;12.26;100.00
18436;BME280;9346;52.006;4.720;2022-09-17T06:58:30;101422.09;;;12.29;100.00
18436;BME280;9346;52.006;4.720;2022-09-17T07:00:58;101430.94;;;12.31;100.00
18436;BME280;9346;52.006;4.720;2022-09-17T07:03:26;101426.81;;;12.34;100.00
18436;BME280;9346;52.006;4.720;2022-09-17T07:05:53;101422.38;;;12.38;100.00
18436;BME280;9346;52.006;4.720;2022-09-17T07:08:23;101429.56;;;12.39;100.00
18436;BME280;9346;52.006;4.720;2022-09-17T07:10:50;101420.19;;;12.45;100.00
18436;BME280;9346;52.006;4.720;2022-09-17T07:13:21;101419.09;;;12.51;100.00
18436;BME280;9346;52.006;4.720;2022-09-17T07:15:51;101425.47;;;12.56;100.00
18436;BME280;9346;52.006;4.720;2022-09-17T07:18:19;101422.47;;;12.63;100.00
18436;BME280;9346;52.006;4.720;2022-09-17T07:20:51;101416.09;;;12.72;100.00
18436;BME280;9346;52.006;4.720;2022-09-17T07:23:23;101424.13;;;12.79;100.00
18436;BME280;9346;52.006;4.720;2022-09-17T07:25:51;101432.72;;;12.87;100.00
18436;BME280;9346;52.006;4.720;2022-09-17T07:28:18;101423.31;;;12.93;100.00
18436;BME280;9346;52.006;4.720;2022-09-17T07:30:45;101423.31;;;12.98;100.00
18436;BME280;9346;52.006;4.720;2022-09-17T07:33:13;101420.88;;;13.02;100.00
18436;BME280;9346;52.006;4.720;2022-09-17T07:35:51;101425.00;;;13.04;100.00
18436;BME280;9346;52.006;4.720;2022-09-17T07:38:20;101416.16;;;13.07;100.00
18436;BME280;9346;52.006;4.720;2022-09-17T07:40:56;101422.78;;;13.11;100.00
18436;BME280;9346;52.006;4.720;2022-09-17T07:43:24;101417.00;;;13.18;100.00
18436;BME280;9346;52.006;4.720;2022-09-17T07:45:53;101418.38;;;13.25;100.00
18436;BME280;9346;52.006;4.720;2022-09-17T07:48:20;101414.47;;;13.36;100.00
18436;BME280;9346;52.006;4.720;2022-09-17T07:50:48;101424.72;;;13.46;100.00
18436;BME280;9346;52.006;4.720;2022-09-17T07:53:18;101417.75;;;13.53;100.00
18436;BME280;9346;52.006;4.720;2022-09-17T07:55:50;101426.63;;;13.61;100.00
18436;BME280;9346;52.006;4.720;2022-09-17T07:58:19;101421.06;;;13.66;100.00
18436;BME280;9346;52.006;4.720;2022-09-17T08:00:48;101428.25;;;13.67;100.00
18436;BME280;9346;52.006;4.720;2022-09-17T08:03:15;101429.13;;;13.62;100.00
18436;BME280;9346;52.006;4.720;2022-09-17T08:05:42;101426.63;;;13.61;100.00
18436;BME280;9346;52.006;4.720;2022-09-17T08:08:10;101424.94;;;13.60;100.00
18436;BME280;9346;52.006;4.720;2022-09-17T08:10:37;101428.56;;;13.60;100.00
18436;BME280;9346;52.006;4.720;2022-09-17T08:13:05;101428.56;;;13.60;100.00
18436;BME280;9346;52.006;4.720;2022-09-17T08:15:34;101439.34;;;13.57;100.00
18436;BME280;9346;52.006;4.720;2022-09-17T08:18:02;101436.59;;;13.52;100.00
18436;BME280;9346;52.006;4.720;2022-09-17T08:20:29;101421.66;;;13.48;100.00
18436;BME280;9346;52.006;4.720;2022-09-17T08:22:58;101430.78;;;13.48;100.00
18436;BME280;9346;52.006;4.720;2022-09-17T08:25:25;101422.19;;;13.49;100.00
18436;BME280;9346;52.006;4.720;2022-09-17T08:27:53;101431.31;;;13.55;100.00
18436;BME280;9346;52.006;4.720;2022-09-17T08:30:22;101436.56;;;13.57;100.00
18436;BME280;9346;52.006;4.720;2022-09-17T08:32:54;101428.84;;;13.59;100.00
18436;BME280;9346;52.006;4.720;2022-09-17T08:35:21;101442.09;;;13.57;100.00
18436;BME280;9346;52.006;4.720;2022-09-17T08:37:48;101446.84;;;13.56;100.00
18436;BME280;9346;52.006;4.720;2022-09-17T08:40:18;101448.78;;;13.61;100.00
18436;BME280;9346;52.006;4.720;2022-09-17T08:42:51;101443.22;;;13.66;100.00
18436;BME280;9346;52.006;4.720;2022-09-17T08:45:21;101452.34;;;13.76;100.00
18436;BME280;9346;52.006;4.720;2022-09-17T08:47:50;101452.03;;;13.88;100.00
18436;BME280;9346;52.006;4.720;2022-09-17T08:50:26;101448.13;;;13.94;100.00
18436;BME280;9346;52.006;4.720;2022-09-17T08:53:10;101445.34;;;13.94;100.00
18436;BME280;9346;52.006;4.720;2022-09-17T08:55:42;101440.94;;;13.83;100.00
18436;BME280;9346;52.006;4.720;2022-09-17T08:58:40;101444.84;;;13.72;100.00
18436;BME280;9346;52.006;4.720;2022-09-17T09:01:24;101441.56;;;13.65;100.00
18436;BME280;9346;52.006;4.720;2022-09-17T09:04:18;101454.03;;;13.62;100.00
18436;BME280;9346;52.006;4.720;2022-09-17T09:06:53;101450.13;;;13.58;100.00
18436;BME280;9346;52.006;4.720;2022-09-17T09:09:24;101449.59;;;13.61;100.00
18436;BME280;9346;52.006;4.720;2022-09-17T09:11:57;101443.78;;;13.68;100.00
18436;BME280;9346;52.006;4.720;2022-09-17T09:14:30;101448.72;;;13.76;100.00
18436;BME280;9346;52.006;4.720;2022-09-17T09:17:04;101458.13;;;13.90;100.00
18436;BME280;9346;52.006;4.720;2022-09-17T09:19:40;101478.56;;;13.99;100.00
18436;BME280;9346;52.006;4.720;2022-09-17T09:22:23;101474.38;;;14.06;100.00
18436;BME280;9346;52.006;4.720;2022-09-17T09:25:08;101470.25;;;14.04;100.00
18436;BME280;9346;52.006;4.720;2022-09-17T09:27:46;101471.94;;;13.95;100.00
18436;BME280;9346;52.006;4.720;2022-09-17T09:30:15;101470.28;;;13.89;100.00
18436;BME280;9346;52.006;4.720;2022-09-17T09:32:55;101464.50;;;13.85;100.00
18436;BME280;9346;52.006;4.720;2022-09-17T09:35:28;101470.31;;;13.84;100.00
18436;BME280;9346;52.006;4.720;2022-09-17T09:38:00;101471.97;;;13.85;100.00
18436;BME280;9346;52.006;4.720;2022-09-17T09:40:36;101471.41;;;13.88;100.00
18436;BME280;9346;52.006;4.720;2022-09-17T09:43:13;101481.09;;;13.90;100.00
18436;BME280;9346;52.006;4.720;2022-09-17T09:48:55;101480.28;;;13.90;100.00
18436;BME280;9346;52.006;4.720;2022-09-17T09:51:43;101476.38;;;13.91;100.00
18436;BME280;9346;52.006;4.720;2022-09-17T09:54:26;101476.09;;;13.92;100.00
18436;BME280;9346;52.006;4.720;2022-09-17T09:56:57;101478.31;;;13.95;100.00
18436;BME280;9346;52.006;4.720;2022-09-17T09:59:28;101464.44;;;14.00;100.00
18436;BME280;9346;52.006;4.720;2022-09-17T10:01:55;101462.50;;;14.06;100.00
18436;BME280;9346;52.006;4.720;2022-09-17T10:04:24;101464.41;;;14.10;100.00
18436;BME280;9346;52.006;4.720;2022-09-17T10:06:59;101457.47;;;14.13;100.00
18436;BME280;9346;52.006;4.720;2022-09-17T10:09:28;101473.78;;;14.19;100.00
18436;BME280;9346;52.006;4.720;2022-09-17T10:12:01;101479.03;;;14.31;100.00
18436;BME280;9346;52.006;4.720;2022-09-17T10:14:31;101465.75;;;14.33;100.00
18436;BME280;9346;52.006;4.720;2022-09-17T10:17:15;101481.53;;;14.32;100.00
18436;BME280;9346;52.006;4.720;2022-09-17T10:19:44;101470.19;;;14.29;100.00
18436;BME280;9346;52.006;4.720;2022-09-17T10:22:24;101478.50;;;14.29;100.00
18436;BME280;9346;52.006;4.720;2022-09-17T10:24:53;101469.09;;;14.20;100.00
18436;BME280;9346;52.006;4.720;2022-09-17T10:27:22;101469.66;;;14.17;100.00
18436;BME280;9346;52.006;4.720;2022-09-17T10:29:52;101466.03;;;14.21;100.00
18436;BME280;9346;52.006;4.720;2022-09-17T10:32:23;101467.72;;;14.27;100.00
18436;BME280;9346;52.006;4.720;2022-09-17T10:34:59;101467.09;;;14.35;100.00
18436;BME280;9346;52.006;4.720;2022-09-17T10:37:41;101463.75;;;14.43;100.00
18436;BME280;9346;52.006;4.720;2022-09-17T10:40:28;101452.91;;;14.52;100.00
18436;BME280;9346;52.006;4.720;2022-09-17T10:43:23;101443.44;;;14.58;100.00
18436;BME280;9346;52.006;4.720;2022-09-17T10:45:56;101422.34;;;14.62;100.00
18436;BME280;9346;52.006;4.720;2022-09-17T10:48:30;101443.94;;;14.65;100.00
18436;BME280;9346;52.006;4.720;2022-09-17T10:50:59;101448.06;;;14.72;100.00
18436;BME280;9346;52.006;4.720;2022-09-17T10:53:29;101451.91;;;14.76;100.00
18436;BME280;9346;52.006;4.720;2022-09-17T10:56:05;101444.94;;;14.79;100.00
18436;BME280;9346;52.006;4.720;2022-09-17T10:58:50;101441.97;;;14.70;100.00
18436;BME280;9346;52.006;4.720;2022-09-17T11:01:33;101439.53;;;14.59;100.00
18436;BME280;9346;52.006;4.720;2022-09-17T11:04:19;101443.44;;;14.58;100.00
18436;BME280;9346;52.006;4.720;2022-09-17T11:07:03;101432.06;;;14.59;100.00
18436;BME280;9346;52.006;4.720;2022-09-17T11:09:46;101432.28;;;14.68;100.00
18436;BME280;9346;52.006;4.720;2022-09-17T11:12:27;101434.72;;;14.74;100.00
18436;BME280;9346;52.006;4.720;2022-09-17T11:15:02;101430.50;;;14.87;100.00
18436;BME280;9346;52.006;4.720;2022-09-17T11:17:55;101424.81;;;15.02;100.00
18436;BME280;9346;52.006;4.720;2022-09-17T11:20:35;101418.88;;;15.13;100.00
18436;BME280;9346;52.006;4.720;2022-09-17T11:23:25;101427.66;;;15.25;100.00
18436;BME280;9346;52.006;4.720;2022-09-17T11:25:59;101412.91;;;15.30;100.00
18436;BME280;9346;52.006;4.720;2022-09-17T11:28:41;101403.72;;;15.34;100.00
18436;BME280;9346;52.006;4.720;2022-09-17T11:31:23;101410.84;;;15.45;100.00
18436;BME280;9346;52.006;4.720;2022-09-17T11:36:48;101398.16;;;15.63;100.00
18436;BME280;9346;52.006;4.720;2022-09-17T11:39:21;101410.31;;;15.72;100.00
18436;BME280;9346;52.006;4.720;2022-09-17T11:41:54;101415.25;;;15.75;100.00
18436;BME280;9346;52.006;4.720;2022-09-17T11:44:26;101414.97;;;15.77;100.00
18436;BME280;9346;52.006;4.720;2022-09-17T11:46:58;101411.84;;;15.83;100.00
18436;BME280;9346;52.006;4.720;2022-09-17T11:49:33;101407.94;;;15.84;100.00
18436;BME280;9346;52.006;4.720;2022-09-17T11:52:05;101409.13;;;15.78;100.00
18436;BME280;9346;52.006;4.720;2022-09-17T11:54:39;101420.81;;;15.75;100.00
18436;BME280;9346;52.006;4.720;2022-09-17T11:57:14;101413.31;;;15.76;100.00
18436;BME280;9346;52.006;4.720;2022-09-17T11:59:44;101414.94;;;15.82;100.00
18436;BME280;9346;52.006;4.720;2022-09-17T12:02:18;101429.81;;;15.91;100.00
18436;BME280;9346;52.006;4.720;2022-09-17T12:04:53;101419.53;;;15.91;100.00
18436;BME280;9346;52.006;4.720;2022-09-17T12:07:31;101417.88;;;15.90;100.00
18436;BME280;9346;52.006;4.720;2022-09-17T12:10:16;101411.16;;;15.96;100.00
18436;BME280;9346;52.006;4.720;2022-09-17T12:12:54;101406.06;;;16.03;100.00
18436;BME280;9346;52.006;4.720;2022-09-17T12:15:27;101408.53;;;16.05;100.00
18436;BME280;9346;52.006;4.720;2022-09-17T12:18:02;101419.06;;;16.08;100.00
18436;BME280;9346;52.006;4.720;2022-09-17T12:20:35;101422.44;;;16.05;100.00
18436;BME280;9346;52.006;4.720;2022-09-17T12:23:09;101413.00;;;16.01;100.00
18436;BME280;9346;52.006;4.720;2022-09-17T12:25:41;101412.19;;;16.00;100.00
18436;BME280;9346;52.006;4.720;2022-09-17T12:28:20;101416.09;;;15.99;100.00
18436;BME280;9346;52.006;4.720;2022-09-17T12:30:55;101411.91;;;16.02;100.00
18436;BME280;9346;52.006;4.720;2022-09-17T12:33:26;101418.22;;;16.07;100.00
18436;BME280;9346;52.006;4.720;2022-09-17T12:39:05;101414.41;;;16.22;100.00
18436;BME280;9346;52.006;4.720;2022-09-17T12:41:44;101419.38;;;16.25;100.00
18436;BME280;9346;52.006;4.720;2022-09-17T12:44:38;101423.66;;;16.17;100.00
18436;BME280;9346;52.006;4.720;2022-09-17T12:47:36;101418.94;;;16.18;100.00
18436;BME280;9346;52.006;4.720;2022-09-17T12:50:31;101417.78;;;16.19;100.00
18436;BME280;9346;52.006;4.720;2022-09-17T12:53:13;101434.16;;;16.20;100.00
18436;BME280;9346;52.006;4.720;2022-09-17T12:55:55;101438.00;;;16.24;100.00
18436;BME280;9346;52.006;4.720;2022-09-17T13:01:22;101428.47;;;16.30;100.00
18436;BME280;9346;52.006;4.720;2022-09-17T13:03:55;101433.16;;;16.35;100.00
18436;BME280;9346;52.006;4.720;2022-09-17T13:06:39;101422.31;;;16.33;100.00
18436;BME280;9346;52.006;4.720;2022-09-17T13:09:28;101419.59;;;16.28;100.00
18436;BME280;9346;52.006;4.720;2022-09-17T13:12:07;101413.69;;;16.35;100.00
18436;BME280;9346;52.006;4.720;2022-09-17T13:14:57;101403.84;;;16.42;100.00
18436;BME280;9346;52.006;4.720;2022-09-17T13:17:34;101412.78;;;16.39;100.00
18436;BME280;9346;52.006;4.720;2022-09-17T13:20:14;101411.97;;;16.39;100.00
18436;BME280;9346;52.006;4.720;2022-09-17T13:22:45;101404.75;;;16.38;100.00
18436;BME280;9346;52.006;4.720;2022-09-17T13:25:16;101411.97;;;16.39;100.00
18436;BME280;9346;52.006;4.720;2022-09-17T13:27:45;101434.00;;;16.35;100.00
18436;BME280;9346;52.006;4.720;2022-09-17T13:30:14;101440.94;;;16.33;100.00
18436;BME280;9346;52.006;4.720;2022-09-17T13:32:51;101428.91;;;15.95;100.00
18436;BME280;9346;52.006;4.720;2022-09-17T13:35:47;101437.94;;;15.58;100.00